sensor_id;sensor_type;location;lat;lon;timestamp;P1;durP1;ratioP1;P2;durP2;ratioP2
75732;SDS011;73508;47.424;19.400;2023-12-22T00:02:04;19.05;;;8.75;;
75732;SDS011;73508;47.424;19.400;2023-12-22T00:04:29;15.63;;;7.93;;
75732;SDS011;73508;47.424;19.400;2023-12-22T00:06:54;15.17;;;8.67;;
75732;SDS011;73508;47.424;19.400;2023-12-22T00:09:20;22.43;;;10.73;;
75732;SDS011;73508;47.424;19.400;2023-12-22T00:11:45;21.30;;;10.83;;
75732;SDS011;73508;47.424;19.400;2023-12-22T00:14:11;19.80;;;10.90;;
75732;SDS011;73508;47.424;19.400;2023-12-22T00:16:37;22.97;;;11.43;;
75732;SDS011;73508;47.424;19.400;2023-12-22T00:19:03;23.75;;;11.82;;
75732;SDS011;73508;47.424;19.400;2023-12-22T00:21:28;20.07;;;11.03;;
75732;SDS011;73508;47.424;19.400;2023-12-22T00:23:53;24.12;;;11.65;;
75732;SDS011;73508;47.424;19.400;2023-12-22T00:26:19;19.17;;;11.20;;
75732;SDS011;73508;47.424;19.400;2023-12-22T00:28:44;20.93;;;12.40;;
75732;SDS011;73508;47.424;19.400;2023-12-22T00:31:09;21.57;;;12.20;;
75732;SDS011;73508;47.424;19.400;2023-12-22T00:33:37;19.37;;;11.40;;
75732;SDS011;73508;47.424;19.400;2023-12-22T00:36:02;22.70;;;12.67;;
75732;SDS011;73508;47.424;19.400;2023-12-22T00:38:28;25.83;;;13.93;;
75732;SDS011;73508;47.424;19.400;2023-12-22T00:40:54;25.47;;;13.43;;
75732;SDS011;73508;47.424;19.400;2023-12-22T00:43:19;24.20;;;13.10;;
75732;SDS011;73508;47.424;19.400;2023-12-22T00:45:44;25.60;;;14.20;;
75732;SDS011;73508;47.424;19.400;2023-12-22T00:48:10;22.63;;;11.70;;
75732;SDS011;73508;47.424;19.400;2023-12-22T00:50:35;23.50;;;11.93;;
75732;SDS011;73508;47.424;19.400;2023-12-22T00:53:00;20.47;;;10.53;;
75732;SDS011;73508;47.424;19.400;2023-12-22T00:55:26;18.03;;;9.77;;
75732;SDS011;73508;47.424;19.400;2023-12-22T00:57:51;18.10;;;10.13;;
75732;SDS011;73508;47.424;19.400;2023-12-22T01:00:17;16.47;;;8.30;;
75732;SDS011;73508;47.424;19.400;2023-12-22T01:02:42;14.57;;;7.77;;
75732;SDS011;73508;47.424;19.400;2023-12-22T01:05:07;15.37;;;7.87;;
75732;SDS011;73508;47.424;19.400;2023-12-22T01:07:33;13.40;;;7.70;;
75732;SDS011;73508;47.424;19.400;2023-12-22T01:09:58;14.07;;;7.00;;
75732;SDS011;73508;47.424;19.400;2023-12-22T01:12:27;12.37;;;6.53;;
75732;SDS011;73508;47.424;19.400;2023-12-22T01:14:53;11.55;;;6.05;;
75732;SDS011;73508;47.424;19.400;2023-12-22T01:17:19;10.13;;;5.15;;
75732;SDS011;73508;47.424;19.400;2023-12-22T01:19:44;9.53;;;4.40;;
75732;SDS011;73508;47.424;19.400;2023-12-22T01:22:10;8.90;;;4.78;;
75732;SDS011;73508;47.424;19.400;2023-12-22T01:24:35;12.00;;;4.27;;
75732;SDS011;73508;47.424;19.400;2023-12-22T01:27:04;8.10;;;4.05;;
75732;SDS011;73508;47.424;19.400;2023-12-22T01:29:30;6.47;;;3.40;;
75732;SDS011;73508;47.424;19.400;2023-12-22T01:31:55;7.73;;;3.77;;
75732;SDS011;73508;47.424;19.400;2023-12-22T01:34:20;6.13;;;2.90;;
75732;SDS011;73508;47.424;19.400;2023-12-22T01:36:45;6.37;;;2.80;;
75732;SDS011;73508;47.424;19.400;2023-12-22T01:39:11;6.07;;;3.10;;
75732;SDS011;73508;47.424;19.400;2023-12-22T01:41:36;5.78;;;2.90;;
75732;SDS011;73508;47.424;19.400;2023-12-22T01:44:01;6.50;;;3.00;;
75732;SDS011;73508;47.424;19.400;2023-12-22T01:46:27;5.53;;;2.77;;
75732;SDS011;73508;47.424;19.400;2023-12-22T01:48:53;5.97;;;2.93;;
75732;SDS011;73508;47.424;19.400;2023-12-22T01:51:18;6.22;;;2.80;;
75732;SDS011;73508;47.424;19.400;2023-12-22T01:53:44;5.60;;;2.60;;
75732;SDS011;73508;47.424;19.400;2023-12-22T01:56:09;4.70;;;2.20;;
75732;SDS011;73508;47.424;19.400;2023-12-22T01:58:35;6.10;;;2.40;;
75732;SDS011;73508;47.424;19.400;2023-12-22T02:03:36;6.40;;;2.30;;
75732;SDS011;73508;47.424;19.400;2023-12-22T02:06:05;5.07;;;1.95;;
75732;SDS011;73508;47.424;19.400;2023-12-22T02:08:31;4.73;;;2.23;;
75732;SDS011;73508;47.424;19.400;2023-12-22T02:10:58;4.97;;;2.28;;
75732;SDS011;73508;47.424;19.400;2023-12-22T02:13:23;4.57;;;2.00;;
75732;SDS011;73508;47.424;19.400;2023-12-22T02:15:53;6.37;;;1.75;;
75732;SDS011;73508;47.424;19.400;2023-12-22T02:18:22;4.80;;;2.17;;
75732;SDS011;73508;47.424;19.400;2023-12-22T02:20:51;4.97;;;2.03;;
75732;SDS011;73508;47.424;19.400;2023-12-22T02:23:17;5.65;;;2.20;;
75732;SDS011;73508;47.424;19.400;2023-12-22T02:25:42;5.63;;;2.20;;
75732;SDS011;73508;47.424;19.400;2023-12-22T02:28:09;4.83;;;2.30;;
75732;SDS011;73508;47.424;19.400;2023-12-22T02:30:48;4.53;;;2.10;;
75732;SDS011;73508;47.424;19.400;2023-12-22T02:33:18;4.53;;;1.50;;
75732;SDS011;73508;47.424;19.400;2023-12-22T02:35:44;4.78;;;1.55;;
75732;SDS011;73508;47.424;19.400;2023-12-22T02:38:09;4.77;;;1.53;;
75732;SDS011;73508;47.424;19.400;2023-12-22T02:40:36;3.67;;;1.37;;
75732;SDS011;73508;47.424;19.400;2023-12-22T02:43:05;6.23;;;1.50;;
75732;SDS011;73508;47.424;19.400;2023-12-22T02:45:31;3.37;;;1.40;;
75732;SDS011;73508;47.424;19.400;2023-12-22T02:47:57;3.67;;;1.33;;
75732;SDS011;73508;47.424;19.400;2023-12-22T02:50:22;4.47;;;1.40;;
75732;SDS011;73508;47.424;19.400;2023-12-22T02:52:47;3.90;;;1.30;;
75732;SDS011;73508;47.424;19.400;2023-12-22T02:55:13;3.63;;;1.17;;
75732;SDS011;73508;47.424;19.400;2023-12-22T02:57:38;3.50;;;1.13;;
75732;SDS011;73508;47.424;19.400;2023-12-22T03:00:04;3.33;;;0.90;;
75732;SDS011;73508;47.424;19.400;2023-12-22T03:02:30;3.50;;;1.23;;
75732;SDS011;73508;47.424;19.400;2023-12-22T03:04:55;2.97;;;1.10;;
75732;SDS011;73508;47.424;19.400;2023-12-22T03:07:20;3.50;;;0.97;;
75732;SDS011;73508;47.424;19.400;2023-12-22T03:09:46;3.53;;;1.30;;
75732;SDS011;73508;47.424;19.400;2023-12-22T03:12:11;3.00;;;1.10;;
75732;SDS011;73508;47.424;19.400;2023-12-22T03:14:36;5.27;;;1.07;;
75732;SDS011;73508;47.424;19.400;2023-12-22T03:17:03;3.17;;;1.10;;
75732;SDS011;73508;47.424;19.400;2023-12-22T03:19:29;3.10;;;0.88;;
75732;SDS011;73508;47.424;19.400;2023-12-22T03:21:55;2.85;;;1.02;;
75732;SDS011;73508;47.424;19.400;2023-12-22T03:24:21;3.37;;;1.00;;
75732;SDS011;73508;47.424;19.400;2023-12-22T03:26:47;2.93;;;1.00;;
75732;SDS011;73508;47.424;19.400;2023-12-22T03:29:13;2.92;;;0.90;;
75732;SDS011;73508;47.424;19.400;2023-12-22T03:31:38;4.17;;;0.90;;
75732;SDS011;73508;47.424;19.400;2023-12-22T03:34:04;4.60;;;1.13;;
75732;SDS011;73508;47.424;19.400;2023-12-22T03:36:29;4.75;;;1.67;;
75732;SDS011;73508;47.424;19.400;2023-12-22T03:38:54;5.57;;;2.00;;
75732;SDS011;73508;47.424;19.400;2023-12-22T03:41:20;4.57;;;1.40;;
75732;SDS011;73508;47.424;19.400;2023-12-22T03:43:45;3.40;;;1.17;;
75732;SDS011;73508;47.424;19.400;2023-12-22T03:46:10;3.27;;;1.03;;
75732;SDS011;73508;47.424;19.400;2023-12-22T03:48:36;3.30;;;0.80;;
75732;SDS011;73508;47.424;19.400;2023-12-22T03:51:01;2.93;;;0.83;;
75732;SDS011;73508;47.424;19.400;2023-12-22T03:53:26;2.30;;;0.60;;
75732;SDS011;73508;47.424;19.400;2023-12-22T03:55:52;2.42;;;0.60;;
75732;SDS011;73508;47.424;19.400;2023-12-22T03:58:17;3.90;;;0.60;;
75732;SDS011;73508;47.424;19.400;2023-12-22T04:00:42;2.70;;;0.67;;
75732;SDS011;73508;47.424;19.400;2023-12-22T04:03:08;2.93;;;0.70;;
75732;SDS011;73508;47.424;19.400;2023-12-22T04:05:33;3.17;;;0.70;;
75732;SDS011;73508;47.424;19.400;2023-12-22T04:07:58;2.70;;;0.53;;
75732;SDS011;73508;47.424;19.400;2023-12-22T04:10:24;2.63;;;0.60;;
75732;SDS011;73508;47.424;19.400;2023-12-22T04:12:49;2.63;;;0.57;;
75732;SDS011;73508;47.424;19.400;2023-12-22T04:15:14;4.90;;;0.67;;
75732;SDS011;73508;47.424;19.400;2023-12-22T04:17:39;4.53;;;0.60;;
75732;SDS011;73508;47.424;19.400;2023-12-22T04:20:06;4.60;;;0.60;;
75732;SDS011;73508;47.424;19.400;2023-12-22T04:22:32;2.85;;;0.68;;
75732;SDS011;73508;47.424;19.400;2023-12-22T04:24:57;6.70;;;0.80;;
75732;SDS011;73508;47.424;19.400;2023-12-22T04:27:23;3.30;;;0.80;;
75732;SDS011;73508;47.424;19.400;2023-12-22T04:29:48;4.20;;;0.60;;
75732;SDS011;73508;47.424;19.400;2023-12-22T04:32:13;2.67;;;0.50;;
75732;SDS011;73508;47.424;19.400;2023-12-22T04:34:38;2.57;;;0.60;;
75732;SDS011;73508;47.424;19.400;2023-12-22T04:37:04;2.40;;;0.50;;
75732;SDS011;73508;47.424;19.400;2023-12-22T04:39:29;5.83;;;0.70;;
75732;SDS011;73508;47.424;19.400;2023-12-22T04:41:54;3.10;;;0.70;;
75732;SDS011;73508;47.424;19.400;2023-12-22T04:44:20;2.87;;;0.50;;
75732;SDS011;73508;47.424;19.400;2023-12-22T04:46:45;2.20;;;0.50;;
75732;SDS011;73508;47.424;19.400;2023-12-22T04:49:10;2.53;;;0.60;;
75732;SDS011;73508;47.424;19.400;2023-12-22T04:51:36;2.20;;;0.50;;
75732;SDS011;73508;47.424;19.400;2023-12-22T04:54:01;5.77;;;0.87;;
75732;SDS011;73508;47.424;19.400;2023-12-22T04:56:26;2.43;;;0.50;;
75732;SDS011;73508;47.424;19.400;2023-12-22T04:58:52;2.40;;;0.60;;
75732;SDS011;73508;47.424;19.400;2023-12-22T05:01:17;3.47;;;0.60;;
75732;SDS011;73508;47.424;19.400;2023-12-22T05:03:43;2.95;;;0.60;;
75732;SDS011;73508;47.424;19.400;2023-12-22T05:06:08;3.80;;;0.60;;
75732;SDS011;73508;47.424;19.400;2023-12-22T05:08:34;3.33;;;0.73;;
75732;SDS011;73508;47.424;19.400;2023-12-22T05:10:59;10.00;;;0.87;;
75732;SDS011;73508;47.424;19.400;2023-12-22T05:13:25;2.90;;;0.50;;
75732;SDS011;73508;47.424;19.400;2023-12-22T05:15:50;5.00;;;0.80;;
75732;SDS011;73508;47.424;19.400;2023-12-22T05:18:15;2.37;;;0.50;;
75732;SDS011;73508;47.424;19.400;2023-12-22T05:20:41;4.07;;;0.80;;
75732;SDS011;73508;47.424;19.400;2023-12-22T05:23:06;4.27;;;0.90;;
75732;SDS011;73508;47.424;19.400;2023-12-22T05:25:31;4.70;;;0.70;;
75732;SDS011;73508;47.424;19.400;2023-12-22T05:27:56;3.63;;;0.70;;
75732;SDS011;73508;47.424;19.400;2023-12-22T05:30:22;3.53;;;0.57;;
75732;SDS011;73508;47.424;19.400;2023-12-22T05:32:47;4.43;;;1.23;;
75732;SDS011;73508;47.424;19.400;2023-12-22T05:35:13;2.92;;;0.60;;
75732;SDS011;73508;47.424;19.400;2023-12-22T05:37:38;3.80;;;0.70;;
75732;SDS011;73508;47.424;19.400;2023-12-22T05:40:04;5.50;;;0.90;;
75732;SDS011;73508;47.424;19.400;2023-12-22T05:42:31;6.28;;;0.82;;
75732;SDS011;73508;47.424;19.400;2023-12-22T05:44:57;2.77;;;0.60;;
75732;SDS011;73508;47.424;19.400;2023-12-22T05:47:23;2.50;;;0.65;;
75732;SDS011;73508;47.424;19.400;2023-12-22T05:49:48;4.77;;;0.80;;
75732;SDS011;73508;47.424;19.400;2023-12-22T05:52:14;7.33;;;0.87;;
75732;SDS011;73508;47.424;19.400;2023-12-22T05:54:39;4.55;;;0.90;;
75732;SDS011;73508;47.424;19.400;2023-12-22T05:57:04;2.20;;;0.63;;
75732;SDS011;73508;47.424;19.400;2023-12-22T05:59:31;4.40;;;0.82;;
75732;SDS011;73508;47.424;19.400;2023-12-22T06:01:57;4.50;;;0.70;;
75732;SDS011;73508;47.424;19.400;2023-12-22T06:04:24;3.90;;;0.82;;
75732;SDS011;73508;47.424;19.400;2023-12-22T06:06:49;3.62;;;0.80;;
75732;SDS011;73508;47.424;19.400;2023-12-22T06:09:15;7.60;;;0.90;;
75732;SDS011;73508;47.424;19.400;2023-12-22T06:11:40;3.13;;;0.57;;
75732;SDS011;73508;47.424;19.400;2023-12-22T06:14:06;7.80;;;1.00;;
75732;SDS011;73508;47.424;19.400;2023-12-22T06:16:31;6.10;;;0.50;;
75732;SDS011;73508;47.424;19.400;2023-12-22T06:18:56;6.90;;;0.87;;
75732;SDS011;73508;47.424;19.400;2023-12-22T06:21:22;4.80;;;0.77;;
75732;SDS011;73508;47.424;19.400;2023-12-22T06:23:47;5.93;;;0.80;;
75732;SDS011;73508;47.424;19.400;2023-12-22T06:26:12;5.47;;;0.80;;
75732;SDS011;73508;47.424;19.400;2023-12-22T06:28:38;4.72;;;0.90;;
75732;SDS011;73508;47.424;19.400;2023-12-22T06:31:05;6.22;;;0.60;;
75732;SDS011;73508;47.424;19.400;2023-12-22T06:33:35;5.40;;;1.10;;
75732;SDS011;73508;47.424;19.400;2023-12-22T06:36:00;4.50;;;0.80;;
75732;SDS011;73508;47.424;19.400;2023-12-22T06:38:26;5.43;;;0.68;;
75732;SDS011;73508;47.424;19.400;2023-12-22T06:40:52;4.87;;;0.85;;
75732;SDS011;73508;47.424;19.400;2023-12-22T06:43:17;3.87;;;0.60;;
75732;SDS011;73508;47.424;19.400;2023-12-22T06:45:43;3.03;;;0.80;;
75732;SDS011;73508;47.424;19.400;2023-12-22T06:48:08;7.53;;;1.53;;
75732;SDS011;73508;47.424;19.400;2023-12-22T06:50:34;2.45;;;0.65;;
75732;SDS011;73508;47.424;19.400;2023-12-22T06:53:01;6.00;;;0.85;;
75732;SDS011;73508;47.424;19.400;2023-12-22T06:55:27;6.97;;;0.80;;
75732;SDS011;73508;47.424;19.400;2023-12-22T06:57:52;9.67;;;1.27;;
75732;SDS011;73508;47.424;19.400;2023-12-22T07:00:18;7.17;;;1.27;;
75732;SDS011;73508;47.424;19.400;2023-12-22T07:02:43;3.45;;;0.80;;
75732;SDS011;73508;47.424;19.400;2023-12-22T07:07:34;3.80;;;0.80;;
75732;SDS011;73508;47.424;19.400;2023-12-22T07:10:00;5.72;;;1.20;;
75732;SDS011;73508;47.424;19.400;2023-12-22T07:12:25;5.30;;;1.17;;
75732;SDS011;73508;47.424;19.400;2023-12-22T07:14:51;4.87;;;0.70;;
75732;SDS011;73508;47.424;19.400;2023-12-22T07:17:16;4.23;;;0.97;;
75732;SDS011;73508;47.424;19.400;2023-12-22T07:19:41;4.30;;;0.98;;
75732;SDS011;73508;47.424;19.400;2023-12-22T07:22:08;3.00;;;0.70;;
75732;SDS011;73508;47.424;19.400;2023-12-22T07:24:33;5.93;;;1.00;;
75732;SDS011;73508;47.424;19.400;2023-12-22T07:26:59;3.20;;;0.80;;
75732;SDS011;73508;47.424;19.400;2023-12-22T07:29:24;10.17;;;1.17;;
75732;SDS011;73508;47.424;19.400;2023-12-22T07:31:49;3.10;;;0.90;;
75732;SDS011;73508;47.424;19.400;2023-12-22T07:34:15;9.97;;;1.30;;
75732;SDS011;73508;47.424;19.400;2023-12-22T07:36:41;4.28;;;0.93;;
75732;SDS011;73508;47.424;19.400;2023-12-22T07:39:07;4.50;;;1.00;;
75732;SDS011;73508;47.424;19.400;2023-12-22T07:41:34;8.57;;;1.02;;
75732;SDS011;73508;47.424;19.400;2023-12-22T07:43:59;5.30;;;0.80;;
75732;SDS011;73508;47.424;19.400;2023-12-22T07:46:26;3.58;;;0.62;;
75732;SDS011;73508;47.424;19.400;2023-12-22T07:48:53;5.45;;;0.68;;
75732;SDS011;73508;47.424;19.400;2023-12-22T07:51:18;5.77;;;0.93;;
75732;SDS011;73508;47.424;19.400;2023-12-22T07:53:44;5.13;;;1.10;;
75732;SDS011;73508;47.424;19.400;2023-12-22T07:56:09;5.22;;;0.80;;
75732;SDS011;73508;47.424;19.400;2023-12-22T07:58:37;3.90;;;0.90;;
75732;SDS011;73508;47.424;19.400;2023-12-22T08:01:03;4.10;;;0.73;;
75732;SDS011;73508;47.424;19.400;2023-12-22T08:03:30;3.72;;;0.70;;
75732;SDS011;73508;47.424;19.400;2023-12-22T08:05:55;7.27;;;1.10;;
75732;SDS011;73508;47.424;19.400;2023-12-22T08:08:21;4.20;;;1.00;;
75732;SDS011;73508;47.424;19.400;2023-12-22T08:10:46;6.67;;;0.87;;
75732;SDS011;73508;47.424;19.400;2023-12-22T08:13:11;3.37;;;0.90;;
75732;SDS011;73508;47.424;19.400;2023-12-22T08:15:37;3.60;;;1.00;;
75732;SDS011;73508;47.424;19.400;2023-12-22T08:18:02;6.30;;;1.15;;
75732;SDS011;73508;47.424;19.400;2023-12-22T08:20:28;5.70;;;1.13;;
75732;SDS011;73508;47.424;19.400;2023-12-22T08:22:53;5.90;;;0.90;;
75732;SDS011;73508;47.424;19.400;2023-12-22T08:25:19;3.90;;;0.80;;
75732;SDS011;73508;47.424;19.400;2023-12-22T08:27:47;6.68;;;0.90;;
75732;SDS011;73508;47.424;19.400;2023-12-22T08:30:12;6.53;;;1.07;;
75732;SDS011;73508;47.424;19.400;2023-12-22T08:32:40;7.15;;;0.90;;
75732;SDS011;73508;47.424;19.400;2023-12-22T08:35:06;3.25;;;0.85;;
75732;SDS011;73508;47.424;19.400;2023-12-22T08:37:32;5.60;;;1.10;;
75732;SDS011;73508;47.424;19.400;2023-12-22T08:39:57;4.32;;;0.88;;
75732;SDS011;73508;47.424;19.400;2023-12-22T08:42:23;7.00;;;1.53;;
75732;SDS011;73508;47.424;19.400;2023-12-22T08:44:49;3.65;;;1.08;;
75732;SDS011;73508;47.424;19.400;2023-12-22T08:47:15;4.43;;;0.87;;
75732;SDS011;73508;47.424;19.400;2023-12-22T08:49:40;6.75;;;1.20;;
75732;SDS011;73508;47.424;19.400;2023-12-22T08:52:06;5.33;;;1.00;;
75732;SDS011;73508;47.424;19.400;2023-12-22T08:54:31;3.87;;;0.97;;
75732;SDS011;73508;47.424;19.400;2023-12-22T08:56:56;4.17;;;0.87;;
75732;SDS011;73508;47.424;19.400;2023-12-22T08:59:22;3.47;;;0.87;;
75732;SDS011;73508;47.424;19.400;2023-12-22T09:01:47;3.63;;;0.83;;
75732;SDS011;73508;47.424;19.400;2023-12-22T09:04:12;5.43;;;0.80;;
75732;SDS011;73508;47.424;19.400;2023-12-22T09:06:38;3.87;;;1.00;;
75732;SDS011;73508;47.424;19.400;2023-12-22T09:09:04;3.75;;;1.00;;
75732;SDS011;73508;47.424;19.400;2023-12-22T09:11:30;4.47;;;0.87;;
75732;SDS011;73508;47.424;19.400;2023-12-22T09:13:55;8.15;;;1.15;;
75732;SDS011;73508;47.424;19.400;2023-12-22T09:16:24;3.07;;;1.07;;
75732;SDS011;73508;47.424;19.400;2023-12-22T09:18:52;3.40;;;1.00;;
75732;SDS011;73508;47.424;19.400;2023-12-22T09:21:17;5.10;;;1.00;;
75732;SDS011;73508;47.424;19.400;2023-12-22T09:23:46;8.47;;;1.40;;
75732;SDS011;73508;47.424;19.400;2023-12-22T09:26:12;4.57;;;1.10;;
75732;SDS011;73508;47.424;19.400;2023-12-22T09:28:38;3.75;;;0.80;;
75732;SDS011;73508;47.424;19.400;2023-12-22T09:31:04;3.83;;;0.90;;
75732;SDS011;73508;47.424;19.400;2023-12-22T09:33:30;7.15;;;1.00;;
75732;SDS011;73508;47.424;19.400;2023-12-22T09:35:56;5.32;;;0.90;;
75732;SDS011;73508;47.424;19.400;2023-12-22T09:38:21;7.17;;;1.30;;
75732;SDS011;73508;47.424;19.400;2023-12-22T09:40:48;3.83;;;0.80;;
75732;SDS011;73508;47.424;19.400;2023-12-22T09:43:14;3.77;;;0.83;;
75732;SDS011;73508;47.424;19.400;2023-12-22T09:45:40;3.35;;;0.70;;
75732;SDS011;73508;47.424;19.400;2023-12-22T09:48:06;3.27;;;0.80;;
75732;SDS011;73508;47.424;19.400;2023-12-22T09:50:33;3.50;;;0.90;;
75732;SDS011;73508;47.424;19.400;2023-12-22T09:52:59;2.62;;;0.62;;
75732;SDS011;73508;47.424;19.400;2023-12-22T09:55:25;4.30;;;1.15;;
75732;SDS011;73508;47.424;19.400;2023-12-22T09:57:52;4.87;;;0.68;;
75732;SDS011;73508;47.424;19.400;2023-12-22T10:00:17;3.77;;;0.70;;
75732;SDS011;73508;47.424;19.400;2023-12-22T10:02:43;4.12;;;0.80;;
75732;SDS011;73508;47.424;19.400;2023-12-22T10:05:10;5.78;;;1.00;;
75732;SDS011;73508;47.424;19.400;2023-12-22T10:07:38;3.33;;;0.90;;
75732;SDS011;73508;47.424;19.400;2023-12-22T10:10:04;6.43;;;0.85;;
75732;SDS011;73508;47.424;19.400;2023-12-22T10:12:29;2.85;;;0.70;;
75732;SDS011;73508;47.424;19.400;2023-12-22T10:14:56;5.97;;;1.30;;
75732;SDS011;73508;47.424;19.400;2023-12-22T10:17:21;3.20;;;0.73;;
75732;SDS011;73508;47.424;19.400;2023-12-22T10:19:47;3.45;;;0.85;;
75732;SDS011;73508;47.424;19.400;2023-12-22T10:22:12;2.83;;;0.70;;
75732;SDS011;73508;47.424;19.400;2023-12-22T10:24:44;7.10;;;1.07;;
75732;SDS011;73508;47.424;19.400;2023-12-22T10:27:13;5.25;;;0.90;;
75732;SDS011;73508;47.424;19.400;2023-12-22T10:29:40;3.75;;;0.75;;
75732;SDS011;73508;47.424;19.400;2023-12-22T10:32:06;5.20;;;1.13;;
75732;SDS011;73508;47.424;19.400;2023-12-22T10:34:32;3.57;;;0.73;;
75732;SDS011;73508;47.424;19.400;2023-12-22T10:36:58;4.30;;;0.82;;
75732;SDS011;73508;47.424;19.400;2023-12-22T10:39:33;2.73;;;0.70;;
75732;SDS011;73508;47.424;19.400;2023-12-22T10:42:01;4.90;;;1.08;;
75732;SDS011;73508;47.424;19.400;2023-12-22T10:44:28;2.85;;;0.70;;
75732;SDS011;73508;47.424;19.400;2023-12-22T10:46:54;2.72;;;0.70;;
75732;SDS011;73508;47.424;19.400;2023-12-22T10:49:20;5.07;;;0.88;;
75732;SDS011;73508;47.424;19.400;2023-12-22T10:51:46;3.90;;;0.80;;
75732;SDS011;73508;47.424;19.400;2023-12-22T10:54:12;3.67;;;0.60;;
75732;SDS011;73508;47.424;19.400;2023-12-22T10:56:38;3.07;;;0.80;;
75732;SDS011;73508;47.424;19.400;2023-12-22T10:59:04;2.92;;;0.62;;
75732;SDS011;73508;47.424;19.400;2023-12-22T11:01:30;4.30;;;0.70;;
75732;SDS011;73508;47.424;19.400;2023-12-22T11:03:59;2.75;;;0.60;;
75732;SDS011;73508;47.424;19.400;2023-12-22T11:06:29;4.03;;;0.73;;
75732;SDS011;73508;47.424;19.400;2023-12-22T11:08:56;4.43;;;0.85;;
75732;SDS011;73508;47.424;19.400;2023-12-22T11:14:02;3.73;;;0.70;;
75732;SDS011;73508;47.424;19.400;2023-12-22T11:16:31;3.00;;;0.80;;
75732;SDS011;73508;47.424;19.400;2023-12-22T11:19:01;5.80;;;1.00;;
75732;SDS011;73508;47.424;19.400;2023-12-22T11:21:27;3.33;;;0.88;;
75732;SDS011;73508;47.424;19.400;2023-12-22T11:23:54;4.53;;;1.00;;
75732;SDS011;73508;47.424;19.400;2023-12-22T11:26:19;2.57;;;0.70;;
75732;SDS011;73508;47.424;19.400;2023-12-22T11:28:47;2.47;;;0.70;;
75732;SDS011;73508;47.424;19.400;2023-12-22T11:31:13;3.10;;;0.80;;
75732;SDS011;73508;47.424;19.400;2023-12-22T11:33:46;2.63;;;0.70;;
75732;SDS011;73508;47.424;19.400;2023-12-22T11:36:13;5.12;;;0.98;;
75732;SDS011;73508;47.424;19.400;2023-12-22T11:38:42;3.22;;;0.70;;
75732;SDS011;73508;47.424;19.400;2023-12-22T11:41:09;3.90;;;0.70;;
75732;SDS011;73508;47.424;19.400;2023-12-22T11:43:36;2.80;;;0.63;;
75732;SDS011;73508;47.424;19.400;2023-12-22T11:46:02;3.45;;;0.82;;
75732;SDS011;73508;47.424;19.400;2023-12-22T11:48:28;2.47;;;0.60;;
75732;SDS011;73508;47.424;19.400;2023-12-22T11:50:54;2.75;;;0.65;;
75732;SDS011;73508;47.424;19.400;2023-12-22T11:53:23;4.80;;;0.70;;
75732;SDS011;73508;47.424;19.400;2023-12-22T11:55:56;3.97;;;0.55;;
75732;SDS011;73508;47.424;19.400;2023-12-22T11:58:37;3.25;;;0.80;;
75732;SDS011;73508;47.424;19.400;2023-12-22T12:01:05;2.12;;;0.60;;
75732;SDS011;73508;47.424;19.400;2023-12-22T12:03:31;3.78;;;0.77;;
75732;SDS011;73508;47.424;19.400;2023-12-22T12:08:38;2.30;;;0.60;;
75732;SDS011;73508;47.424;19.400;2023-12-22T12:11:03;2.53;;;0.60;;
75732;SDS011;73508;47.424;19.400;2023-12-22T12:13:29;5.90;;;0.70;;
75732;SDS011;73508;47.424;19.400;2023-12-22T12:15:56;3.12;;;0.80;;
75732;SDS011;73508;47.424;19.400;2023-12-22T12:18:24;3.20;;;0.60;;
75732;SDS011;73508;47.424;19.400;2023-12-22T12:20:49;2.10;;;0.60;;
75732;SDS011;73508;47.424;19.400;2023-12-22T12:23:15;3.35;;;0.65;;
75732;SDS011;73508;47.424;19.400;2023-12-22T12:25:40;3.27;;;0.80;;
75732;SDS011;73508;47.424;19.400;2023-12-22T12:28:07;3.50;;;0.80;;
75732;SDS011;73508;47.424;19.400;2023-12-22T12:30:37;2.10;;;0.60;;
75732;SDS011;73508;47.424;19.400;2023-12-22T12:33:06;2.50;;;0.60;;
75732;SDS011;73508;47.424;19.400;2023-12-22T12:35:32;2.72;;;0.70;;
75732;SDS011;73508;47.424;19.400;2023-12-22T12:37:59;2.60;;;0.60;;
75732;SDS011;73508;47.424;19.400;2023-12-22T12:40:25;2.10;;;0.50;;
75732;SDS011;73508;47.424;19.400;2023-12-22T12:42:54;3.10;;;0.67;;
75732;SDS011;73508;47.424;19.400;2023-12-22T12:45:24;2.50;;;0.60;;
75732;SDS011;73508;47.424;19.400;2023-12-22T12:50:23;3.33;;;0.60;;
75732;SDS011;73508;47.424;19.400;2023-12-22T12:52:51;3.25;;;0.50;;
75732;SDS011;73508;47.424;19.400;2023-12-22T12:55:19;4.13;;;0.60;;
75732;SDS011;73508;47.424;19.400;2023-12-22T12:57:46;3.25;;;0.85;;
75732;SDS011;73508;47.424;19.400;2023-12-22T13:00:29;2.15;;;0.50;;
75732;SDS011;73508;47.424;19.400;2023-12-22T13:05:30;2.90;;;0.57;;
75732;SDS011;73508;47.424;19.400;2023-12-22T13:08:11;2.10;;;0.40;;
75732;SDS011;73508;47.424;19.400;2023-12-22T13:10:37;4.62;;;0.60;;
75732;SDS011;73508;47.424;19.400;2023-12-22T13:13:03;3.70;;;0.80;;
75732;SDS011;73508;47.424;19.400;2023-12-22T13:15:29;2.80;;;0.60;;
75732;SDS011;73508;47.424;19.400;2023-12-22T13:17:55;2.17;;;0.50;;
75732;SDS011;73508;47.424;19.400;2023-12-22T13:20:20;2.37;;;0.37;;
75732;SDS011;73508;47.424;19.400;2023-12-22T13:22:46;2.58;;;0.50;;
75732;SDS011;73508;47.424;19.400;2023-12-22T13:25:11;2.97;;;0.60;;
75732;SDS011;73508;47.424;19.400;2023-12-22T13:27:50;4.70;;;0.80;;
75732;SDS011;73508;47.424;19.400;2023-12-22T13:30:38;2.50;;;0.70;;
75732;SDS011;73508;47.424;19.400;2023-12-22T13:33:07;3.67;;;0.70;;
75732;SDS011;73508;47.424;19.400;2023-12-22T13:35:33;3.63;;;0.67;;
75732;SDS011;73508;47.424;19.400;2023-12-22T13:38:01;2.78;;;0.68;;
75732;SDS011;73508;47.424;19.400;2023-12-22T13:40:27;3.45;;;0.85;;
75732;SDS011;73508;47.424;19.400;2023-12-22T13:42:58;2.87;;;0.62;;
75732;SDS011;73508;47.424;19.400;2023-12-22T13:45:24;2.73;;;0.70;;
75732;SDS011;73508;47.424;19.400;2023-12-22T13:47:50;5.40;;;0.70;;
75732;SDS011;73508;47.424;19.400;2023-12-22T13:50:15;2.85;;;0.80;;
75732;SDS011;73508;47.424;19.400;2023-12-22T13:52:41;2.83;;;0.80;;
75732;SDS011;73508;47.424;19.400;2023-12-22T13:55:15;5.05;;;0.80;;
75732;SDS011;73508;47.424;19.400;2023-12-22T13:57:41;2.70;;;0.57;;
75732;SDS011;73508;47.424;19.400;2023-12-22T14:02:47;4.03;;;0.73;;
75732;SDS011;73508;47.424;19.400;2023-12-22T14:05:18;2.67;;;0.70;;
75732;SDS011;73508;47.424;19.400;2023-12-22T14:07:44;3.77;;;1.00;;
75732;SDS011;73508;47.424;19.400;2023-12-22T14:10:10;3.47;;;0.80;;
75732;SDS011;73508;47.424;19.400;2023-12-22T14:12:36;2.92;;;0.90;;
75732;SDS011;73508;47.424;19.400;2023-12-22T14:15:03;3.00;;;0.90;;
75732;SDS011;73508;47.424;19.400;2023-12-22T14:17:32;2.95;;;0.68;;
75732;SDS011;73508;47.424;19.400;2023-12-22T14:19:57;3.22;;;1.27;;
75732;SDS011;73508;47.424;19.400;2023-12-22T14:22:26;4.13;;;0.70;;
75732;SDS011;73508;47.424;19.400;2023-12-22T14:24:51;1.90;;;0.40;;
75732;SDS011;73508;47.424;19.400;2023-12-22T14:27:17;2.10;;;0.43;;
75732;SDS011;73508;47.424;19.400;2023-12-22T14:29:43;2.67;;;0.70;;
75732;SDS011;73508;47.424;19.400;2023-12-22T14:32:12;3.25;;;0.80;;
75732;SDS011;73508;47.424;19.400;2023-12-22T14:34:39;3.62;;;0.65;;
75732;SDS011;73508;47.424;19.400;2023-12-22T14:37:08;1.97;;;0.53;;
75732;SDS011;73508;47.424;19.400;2023-12-22T14:39:33;2.12;;;0.60;;
75732;SDS011;73508;47.424;19.400;2023-12-22T14:42:00;2.53;;;0.53;;
75732;SDS011;73508;47.424;19.400;2023-12-22T14:44:27;2.67;;;0.52;;
75732;SDS011;73508;47.424;19.400;2023-12-22T14:46:53;3.30;;;0.70;;